DW2959 Murcia ES current weather conditions

sailwx.info

Wind from 267 at 6 knots gusting 13

Air temperature 26.1° C
Dewpoint 9.0° C

Last reported at 2016-May-30 11:38 UTC.
Time now 2016-May-30 12:40 UTC

Location: N 38°00' W 001°02'.
View on Google Maps.

See reports from other nearby stations

  
Tides and Currents Weather Stations Pressure Air Temp Water Temp Dewpoint Dewpoint Depression Visibility Wind Speed Wind Dir Waves Ship Positions
date/time (UTC)wind fromknots sea level pressurealtimeterstation pressurevisibilityair tempwater tempwave heightnotes
2016-May-30 11:38 267 6 gusting 13 26.1
2016-May-30 11:24 311 2 gusting 9 25.6
2016-May-30 11:08 284 1 gusting 12 25.6
2016-May-30 10:54 311 0 gusting 4 25.6
2016-May-30 10:38 284 6 gusting 13 25.0
2016-May-30 10:23 257 3 gusting 8 25.0
2016-May-30 10:07 321 5 gusting 9 25.0
2016-May-30 09:53 271 6 gusting 14 24.4
2016-May-30 09:38 279 6 gusting 11 24.4
2016-May-30 09:22 329 6 gusting 14 23.9
2016-May-30 09:08 288 7 gusting 12 23.3
2016-May-30 08:51 315 6 gusting 13 23.3
2016-May-30 08:37 290 8 gusting 12 22.8
2016-May-30 08:22 277 7 gusting 13 22.2
2016-May-30 08:07 327 7 gusting 12 22.2
2016-May-30 07:52 278 5 gusting 12 21.7
2016-May-30 07:38 293 5 gusting 11 21.1
2016-May-30 07:21 258 6 gusting 12 21.1
2016-May-30 07:06 277 6 gusting 10 20.6
2016-May-30 06:51 262 1 gusting 8 20.6
2016-May-30 06:36 248 19.4
2016-May-30 06:20 240 19.4
2016-May-30 06:06 238 0 gusting 4 18.9
2016-May-30 05:50 232 0 gusting 4 18.9
2016-May-30 05:35 225 0 gusting 6 18.3
2016-May-30 05:20 242 0 gusting 4 17.8
2016-May-30 05:04 243 17.8
2016-May-30 04:50 242 18.3
2016-May-30 04:34 236 18.3
2016-May-30 04:21 236 18.3
2016-May-30 04:05 231 18.9
2016-May-30 03:49 244 0 gusting 4 18.9
2016-May-30 03:33 248 0 gusting 4 19.4
2016-May-30 03:18 240 0 gusting 6 19.4
2016-May-30 03:04 265 19.4
2016-May-30 02:48 210 19.4
2016-May-30 02:33 236 1 gusting 6 19.4
2016-May-30 02:18 221 2 gusting 5 19.4
2016-May-30 02:03 227 20.0
2016-May-30 01:47 264 20.0
2016-May-30 01:32 260 20.6
2016-May-30 01:17 231 1 gusting 5 20.0
2016-May-30 01:06 225 2 gusting 6 20.0
2016-May-30 00:47 291 20.6
2016-May-30 00:32 291 20.6
2016-May-30 00:17 291 21.1
2016-May-30 00:02 292 21.1
2016-May-29 23:46 292 21.1
2016-May-29 23:31 292 21.1
2016-May-29 23:16 292 21.7
2016-May-29 23:01 292 21.7
2016-May-29 22:45 292 21.1
2016-May-29 22:31 292 21.1
2016-May-29 22:16 292 20.6
2016-May-29 21:59 292 20.6
2016-May-29 21:48 291 21.1
2016-May-29 21:30 291 21.7
2016-May-29 21:14 291 21.7
2016-May-29 21:00 291 22.2
2016-May-29 20:44 291 22.8
2016-May-29 20:28 291 23.3
2016-May-29 20:14 276 0 gusting 6 23.3
2016-May-29 19:59 206 23.3
2016-May-29 19:43 202 1 gusting 6 23.3
2016-May-29 19:29 184 23.9
2016-May-29 19:14 198 3 gusting 9 24.4
2016-May-29 18:58 197 2 gusting 8 25.0
2016-May-29 18:44 161 6 gusting 13 25.0
2016-May-29 18:28 173 9 gusting 13 25.0
2016-May-29 18:12 170 7 gusting 13 25.0
2016-May-29 17:58 190 10 gusting 16 25.6
2016-May-29 17:42 190 8 gusting 16 26.1
2016-May-29 17:30 185 9 gusting 18 25.6
2016-May-29 17:13 159 11 gusting 17 26.1
2016-May-29 16:57 169 10 gusting 19 26.1
2016-May-29 16:43 170 13 gusting 19 26.1
2016-May-29 16:27 177 6 gusting 17 26.7
2016-May-29 16:11 191 11 gusting 16 26.7
2016-May-29 15:56 189 12 gusting 20 26.7
2016-May-29 15:41 191 8 gusting 16 26.7
2016-May-29 15:26 179 10 gusting 14 27.2
2016-May-29 15:11 165 6 gusting 15 27.8
2016-May-29 14:56 342 5 gusting 9 27.8
2016-May-29 14:41 327 2 gusting 15 27.8
2016-May-29 14:26 101 0 gusting 5 27.8
2016-May-29 14:15 212 0 gusting 6 27.2
2016-May-29 13:56 319 3 gusting 7 27.2
2016-May-29 13:40 322 6 gusting 11 27.2
2016-May-29 13:25 318 6 gusting 15 27.2
2016-May-29 13:10 005 0 gusting 10 26.7
2016-May-29 12:54 331 6 gusting 19 26.7
2016-May-29 12:39 275 3 gusting 8 26.1
2016-May-29 12:25 332 6 gusting 12 26.1
2016-May-29 12:09 271 8 gusting 15 26.7
2016-May-29 11:55 336 8 gusting 17 26.1
2016-May-29 11:40 005 10 gusting 16 26.1
2016-May-29 11:24 321 1 gusting 13 25.6
2016-May-29 11:08 355 10 gusting 19 25.6
2016-May-29 10:53 327 2 gusting 12 25.0
2016-May-29 10:38 290 8 gusting 13 25.6
2016-May-29 10:23 270 4 gusting 13 24.4
2016-May-29 10:08 272 2 gusting 14 24.4
2016-May-29 09:53 340 7 gusting 14 23.9
2016-May-29 09:37 315 9 gusting 14 23.9
2016-May-29 09:22 279 8 gusting 19 23.9
2016-May-29 09:07 318 5 gusting 13 23.9
2016-May-29 08:52 269 6 gusting 14 23.3
2016-May-29 08:51 209 6 gusting 16 23.3
2016-May-28 22:06 277 4 gusting 6 21.1
2016-May-28 21:51 289 3 gusting 12 21.7
2016-May-28 21:36 220 6 gusting 13 21.7
2016-May-28 21:21 281 6 gusting 15 21.7
2016-May-28 21:07 284 6 gusting 12 21.7
2016-May-28 20:51 278 6 gusting 13 22.2
2016-May-28 20:36 317 9 gusting 16 22.2
2016-May-28 20:21 310 5 gusting 11 21.7
2016-May-28 20:06 304 8 gusting 25 22.2
2016-May-28 19:50 292 11 gusting 19 22.2
2016-May-28 19:36 310 6 gusting 14 22.2
2016-May-28 19:20 308 9 gusting 20 22.8
2016-May-28 19:08 278 10 gusting 21 23.3
2016-May-28 18:50 310 13 gusting 21 23.3
2016-May-28 18:35 316 10 gusting 21 23.9
2016-May-28 18:20 331 15 gusting 29 24.4
2016-May-28 18:04 325 18 gusting 33 25.0
2016-May-28 17:50 342 21 gusting 37 25.6
2016-May-28 17:34 325 19 gusting 32 27.2
2016-May-28 17:19 010 7 gusting 17 28.9
2016-May-28 17:04 355 12 gusting 21 28.9
2016-May-28 16:49 005 8 gusting 12 30.0
2016-May-28 16:34 227 0 gusting 4 30.6
2016-May-28 16:19 150 3 gusting 11 30.0
2016-May-28 15:49 163 6 gusting 14 28.9
2016-May-28 15:34 178 7 gusting 13 29.4
2016-May-28 15:19 165 0 gusting 9 29.4
2016-May-28 15:04 165 6 gusting 13 28.9
2016-May-28 14:47 179 6 gusting 16 29.4
2016-May-28 14:32 161 0 gusting 13 28.9
2016-May-28 14:17 155 6 gusting 11 28.9
2016-May-28 14:02 170 7 gusting 13 28.9
2016-May-28 13:47 171 5 gusting 11 29.4
2016-May-28 13:34 153 5 gusting 13 29.4
2016-May-28 13:17 161 5 gusting 13 28.9
2016-May-28 13:02 122 6 gusting 13 28.3
2016-May-28 12:47 156 7 gusting 14 28.3
2016-May-28 12:45 156 7 gusting 14 28.3